Time;durP1;ratioP1;P1;durP2;ratioP2;P2;SDS_P1;SDS_P2;PMS_P1;PMS_P2;Temp;Humidity;BMP_temperature;BMP_pressure;BME280_temperature;BME280_humidity;BME280_pressure;Samples;Min_cycle;Max_cycle;Signal;HPM_P1;HPM_P2
2021/09/08 00:01:23;;;;;;;14.65;9.82;;;14.80;70.10;;;14.42;55.53;95608.09;4994971;28;20216;-79
2021/09/08 00:03:51;;;;;;;13.68;8.93;;;14.80;70.20;;;14.36;55.50;95606.25;5010940;28;20199;-79
2021/09/08 00:06:18;;;;;;;12.88;8.63;;;14.70;70.10;;;14.37;55.89;95606.06;5011285;28;20242;-80
2021/09/08 00:08:45;;;;;;;12.90;8.65;;;14.70;70.20;;;14.37;55.66;95602.63;5028046;28;20227;-79
2021/09/08 00:11:13;;;;;;;14.95;9.80;;;14.60;70.00;;;14.33;55.85;95601.38;5004610;28;20251;-77
2021/09/08 00:13:40;;;;;;;14.18;8.93;;;14.60;70.10;;;14.30;55.92;95597.31;5011341;28;20193;-79
2021/09/08 00:16:08;;;;;;;12.23;9.25;;;14.60;70.10;;;14.27;55.91;95592.44;4980680;28;20643;-79
2021/09/08 00:18:35;;;;;;;13.90;9.35;;;14.60;70.20;;;14.25;56.03;95592.63;5014775;28;20310;-79
2021/09/08 00:21:02;;;;;;;12.10;8.57;;;14.60;70.20;;;14.22;55.91;95586.91;5010839;28;20647;-79
2021/09/08 00:23:29;;;;;;;14.85;9.55;;;14.60;70.30;;;14.22;56.14;95589.56;5011466;28;20608;-79
2021/09/08 00:25:56;;;;;;;12.48;9.13;;;14.50;70.30;;;14.19;56.10;95582.84;5023372;28;20239;-78
2021/09/08 00:28:23;;;;;;;12.63;9.32;;;14.50;70.30;;;14.13;55.91;95578.38;5025981;28;20201;-78
2021/09/08 00:30:51;;;;;;;13.02;9.18;;;14.50;70.40;;;14.14;56.18;95582.63;5011185;28;20209;-80
2021/09/08 00:33:18;;;;;;;14.18;9.60;;;14.50;70.50;;;14.12;56.07;95583.84;5014180;28;20200;-79
2021/09/08 00:35:45;;;;;;;13.10;9.02;;;14.50;70.40;;;14.12;56.24;95586.50;5014695;28;20212;-80
2021/09/08 00:38:12;;;;;;;13.45;8.68;;;14.50;70.50;;;14.06;56.05;95577.53;5015031;28;20252;-79
2021/09/08 00:40:41;;;;;;;16.63;9.27;;;14.40;70.40;;;14.04;56.53;95577.72;5014908;28;20243;-79
2021/09/08 00:43:08;;;;;;;11.63;9.02;;;14.40;70.60;;;14.01;56.19;95579.94;5015067;28;20284;-79
2021/09/08 00:45:35;;;;;;;13.25;9.38;;;14.40;70.50;;;13.98;56.27;95581.16;5028459;28;20235;-78
2021/09/08 00:48:04;;;;;;;14.82;9.32;;;14.30;70.40;;;13.97;56.40;95584.81;5014655;28;20292;-79
2021/09/08 00:50:31;;;;;;;12.68;9.27;;;14.30;70.50;;;13.90;56.22;95583.94;5031110;28;20208;-79
2021/09/08 00:52:59;;;;;;;11.68;8.77;;;14.40;70.60;;;13.90;56.40;95587.44;5018016;28;20242;-79
2021/09/08 00:55:28;;;;;;;13.07;9.55;;;14.30;70.60;;;13.89;56.28;95591.06;5004623;28;20279;-79
2021/09/08 00:57:57;;;;;;;13.95;9.55;;;14.20;70.60;;;13.86;56.35;95590.63;4998571;28;20209;-79
2021/09/08 01:00:25;;;;;;;14.45;9.20;;;14.20;70.70;;;13.84;56.47;95584.75;5015601;28;20217;-78
2021/09/08 01:02:54;;;;;;;12.00;8.48;;;14.20;70.70;;;13.83;56.66;95577.84;5012307;28;20247;-78
2021/09/08 01:05:24;;;;;;;14.52;9.48;;;14.20;70.70;;;13.75;56.47;95568.28;4982632;28;20702;-79
2021/09/08 01:07:52;;;;;;;12.20;8.65;;;14.10;70.60;;;13.80;56.64;95576.41;5014369;28;20229;-79
2021/09/08 01:10:20;;;;;;;10.57;8.60;;;14.20;70.90;;;13.77;56.72;95574.97;5013269;28;20217;-78
2021/09/08 01:12:49;;;;;;;11.32;8.80;;;14.10;70.90;;;13.76;56.91;95578.63;4997159;28;20192;-79
2021/09/08 01:15:17;;;;;;;12.95;9.15;;;14.10;70.90;;;13.73;56.85;95567.66;5012484;28;20309;-79
2021/09/08 01:17:44;;;;;;;13.60;9.32;;;14.20;70.90;;;13.70;56.75;95566.22;5012531;28;20252;-79
2021/09/08 01:20:15;;;;;;;14.95;9.32;;;14.10;70.90;;;13.67;56.68;95569.25;5031796;28;20240;-78
2021/09/08 01:22:53;;;;;;;13.25;9.95;;;14.00;70.90;;;13.63;56.77;95567.19;4997391;28;20286;-79
2021/09/08 01:25:25;;;;;;;10.90;8.35;;;14.00;71.70;;;13.60;56.92;95566.56;5013264;28;20226;-79
2021/09/08 01:27:55;;;;;;;12.27;8.65;;;14.00;71.10;;;13.58;56.84;95573.84;5013636;28;20197;-79
2021/09/08 01:30:25;;;;;;;15.98;9.27;;;14.00;71.10;;;13.57;56.92;95561.72;5013171;28;20258;-78
2021/09/08 01:32:55;;;;;;;15.27;9.50;;;13.90;71.20;;;13.56;56.83;95569.78;5013747;28;20208;-79
2021/09/08 01:35:22;;;;;;;16.02;9.35;;;14.00;71.30;;;13.55;56.99;95568.16;4997506;28;20256;-79
2021/09/08 01:37:49;;;;;;;13.25;9.23;;;13.90;71.20;;;13.54;56.92;95567.34;5030042;28;20208;-79
2021/09/08 01:40:18;;;;;;;14.73;9.27;;;13.90;71.10;;;13.52;57.05;95558.81;5008851;28;20315;-80
2021/09/08 01:42:47;;;;;;;11.93;8.85;;;13.90;71.40;;;13.51;57.08;95557.22;5013883;28;20643;-79
2021/09/08 01:45:15;;;;;;;11.23;8.77;;;13.90;71.30;;;13.49;57.10;95556.59;4996577;28;20753;-80
2021/09/08 01:47:45;;;;;;;13.30;8.63;;;13.90;71.30;;;13.45;57.05;95550.06;5013379;28;20236;-79
2021/09/08 01:50:12;;;;;;;12.13;9.05;;;13.80;71.40;;;13.44;56.90;95557.16;5018561;28;20294;-78
2021/09/08 01:52:40;;;;;;;16.83;9.23;;;13.80;72.10;;;13.42;57.33;95556.53;5045266;28;20675;-80
2021/09/08 01:55:10;;;;;;;14.38;8.80;;;13.80;72.30;;;13.42;57.24;95566.25;5013520;28;20197;-79
2021/09/08 01:57:38;;;;;;;12.43;8.50;;;13.80;71.50;;;13.36;57.02;95564.38;5013390;28;20236;-79
2021/09/08 02:00:07;;;;;;;13.63;9.68;;;13.80;71.40;;;13.36;57.37;95554.63;5013299;28;20731;-79
2021/09/08 02:02:39;;;;;;;11.68;8.05;;;13.70;71.60;;;13.35;57.29;95563.53;5029258;28;20227;-79
2021/09/08 02:05:08;;;;;;;12.13;8.65;;;13.70;71.40;;;13.32;57.42;95558.69;5013357;28;20283;-79
2021/09/08 02:07:36;;;;;;;13.30;8.05;;;13.70;71.50;;;13.31;57.23;95556.25;5016335;28;20188;-78
2021/09/08 02:10:04;;;;;;;16.33;8.77;;;13.70;71.50;;;13.26;57.42;95552.34;5011246;28;20307;-79
2021/09/08 02:12:31;;;;;;;14.57;9.40;;;13.60;71.40;;;13.25;57.46;95549.91;5033128;28;20282;-79
2021/09/08 02:14:58;;;;;;;12.93;9.68;;;13.60;71.50;;;13.21;57.64;95551.31;5032818;28;20655;-79
2021/09/08 02:17:26;;;;;;;11.00;8.70;;;13.70;71.60;;;13.15;57.60;95538.91;4992107;28;20201;-79
2021/09/08 02:19:54;;;;;;;11.82;8.80;;;13.60;71.60;;;13.13;57.66;95533.81;4996875;28;20291;-79
2021/09/08 02:22:21;;;;;;;13.32;9.15;;;13.50;71.40;;;13.11;57.70;95541.91;5013238;28;20247;-79
2021/09/08 02:24:49;;;;;;;13.95;9.20;;;13.50;71.50;;;13.12;57.58;95546.19;5013133;28;20289;-80
2021/09/08 02:27:16;;;;;;;12.90;9.32;;;13.50;71.80;;;13.10;57.66;95547.38;5017302;28;20284;-79
2021/09/08 02:29:43;;;;;;;12.57;9.05;;;13.50;71.70;;;13.07;57.74;95545.13;5012447;28;20232;-79
2021/09/08 02:32:10;;;;;;;11.38;8.95;;;13.50;71.70;;;13.03;57.75;95547.31;4996386;28;20223;-79
2021/09/08 02:34:37;;;;;;;11.88;8.85;;;13.40;71.60;;;13.00;57.84;95539.81;4996535;28;20263;-79
2021/09/08 02:37:04;;;;;;;13.82;9.20;;;13.40;71.80;;;12.96;57.71;95538.56;4998067;28;20606;-79
2021/09/08 02:39:34;;;;;;;12.70;8.98;;;13.40;71.80;;;12.93;57.79;95545.03;5032093;28;20311;-79
2021/09/08 02:42:01;;;;;;;11.88;8.88;;;13.40;71.80;;;12.91;57.53;95541.75;5024706;28;20220;-79
2021/09/08 02:44:29;;;;;;;12.90;8.70;;;13.30;71.70;;;12.90;57.81;95547.22;5012779;28;20208;-79
2021/09/08 02:46:56;;;;;;;15.63;9.18;;;13.30;71.90;;;12.83;58.36;95536.66;5012630;28;20252;-79
2021/09/08 02:49:23;;;;;;;12.90;9.13;;;13.30;72.00;;;12.81;57.96;95534.19;5012495;28;20192;-78
2021/09/08 02:51:50;;;;;;;13.93;9.88;;;13.30;72.00;;;12.82;58.01;95541.09;5012827;28;20698;-79
2021/09/08 02:54:18;;;;;;;12.10;8.93;;;13.20;72.00;;;12.79;58.47;95546.75;5013442;28;20192;-79
2021/09/08 02:56:45;;;;;;;12.73;8.88;;;13.20;72.00;;;12.75;58.46;95534.16;5012046;28;20209;-79
2021/09/08 02:59:13;;;;;;;10.75;8.57;;;13.20;72.10;;;12.74;58.19;95537.78;4999760;28;20259;-78
2021/09/08 03:01:41;;;;;;;10.27;8.43;;;13.10;72.00;;;12.72;58.17;95529.25;5017195;28;20299;-79
2021/09/08 03:04:09;;;;;;;11.93;8.60;;;13.10;72.00;;;12.69;58.32;95535.72;5021575;28;20287;-79
2021/09/08 03:06:35;;;;;;;13.68;8.63;;;13.10;72.00;;;12.67;58.14;95543.00;5024177;28;20236;-79
2021/09/08 03:09:03;;;;;;;11.52;8.85;;;13.10;72.00;;;12.62;58.11;95538.28;4995847;28;20727;-80
2021/09/08 03:11:30;;;;;;;12.68;9.02;;;13.00;71.90;;;12.61;58.30;95530.59;4997585;28;20216;-79
2021/09/08 03:13:57;;;;;;;13.90;8.52;;;13.00;71.90;;;12.53;58.25;95526.25;5012347;28;20192;-79
2021/09/08 03:16:28;;;;;;;14.60;8.93;;;13.00;72.00;;;12.55;58.25;95528.69;4981031;28;20587;-78
2021/09/08 03:18:55;;;;;;;13.52;8.85;;;13.00;72.10;;;12.52;58.43;95532.53;5010050;28;20219;-79
2021/09/08 03:21:22;;;;;;;12.52;9.02;;;12.90;72.10;;;12.48;58.37;95531.28;5011251;28;20248;-79
2021/09/08 03:23:50;;;;;;;13.15;8.57;;;12.90;72.10;;;12.47;58.28;95529.66;5027986;28;20201;-78
2021/09/08 03:26:18;;;;;;;13.40;9.40;;;12.90;72.10;;;12.45;58.34;95534.28;4995725;28;20558;-79
2021/09/08 03:28:45;;;;;;;13.00;9.68;;;12.90;72.30;;;12.43;58.46;95528.41;5012820;28;20243;-78
2021/09/08 03:31:12;;;;;;;13.75;8.48;;;12.90;72.30;;;12.42;58.40;95526.78;5011337;28;20240;-79
2021/09/08 03:33:39;;;;;;;16.17;8.98;;;12.80;72.30;;;12.39;57.92;95532.41;4991765;28;20205;-78
2021/09/08 03:36:07;;;;;;;13.40;9.18;;;12.90;72.30;;;12.35;58.47;95518.81;5011627;28;20236;-78
2021/09/08 03:38:34;;;;;;;15.55;9.00;;;12.80;72.30;;;12.31;58.45;95518.34;4995725;28;20220;-78
2021/09/08 03:41:01;;;;;;;13.45;9.27;;;12.70;72.40;;;12.33;58.72;95531.34;4996295;28;20220;-78
2021/09/08 03:43:30;;;;;;;13.63;9.23;;;12.80;72.40;;;12.30;58.69;95522.03;5010085;28;20197;-78
2021/09/08 03:45:57;;;;;;;13.18;9.65;;;12.70;72.60;;;12.28;58.57;95521.38;5010042;28;20282;-79
2021/09/08 03:48:24;;;;;;;13.85;9.43;;;12.70;72.50;;;12.25;58.54;95518.31;5017090;28;20210;-78
2021/09/08 03:50:51;;;;;;;12.75;9.30;;;12.70;72.60;;;12.23;58.73;95518.50;5012028;28;20216;-78
2021/09/08 03:53:18;;;;;;;13.30;9.07;;;12.70;72.50;;;12.23;58.68;95525.56;5019179;28;20192;-79
2021/09/08 03:55:46;;;;;;;14.98;9.35;;;12.60;72.50;;;12.21;58.76;95520.50;5002408;28;20220;-78
2021/09/08 03:58:13;;;;;;;14.68;8.85;;;12.60;72.60;;;12.19;58.84;95521.69;5018058;28;20323;-78
2021/09/08 04:00:40;;;;;;;11.95;8.57;;;12.60;72.60;;;12.17;58.78;95524.50;5015913;28;20212;-79
2021/09/08 04:03:10;;;;;;;15.27;9.73;;;12.70;72.70;;;12.14;58.77;95524.88;5028988;28;20219;-79
2021/09/08 04:05:37;;;;;;;12.45;8.45;;;12.60;72.90;;;12.12;59.17;95513.72;5009191;28;20647;-79
2021/09/08 04:08:04;;;;;;;12.70;9.27;;;12.50;72.70;;;12.09;58.77;95514.91;4997954;28;20292;-78
2021/09/08 04:10:31;;;;;;;13.65;9.40;;;12.50;72.80;;;12.07;58.94;95516.94;5010586;28;20240;-79
2021/09/08 04:12:59;;;;;;;15.00;9.57;;;12.50;72.70;;;12.04;59.05;95501.50;5001900;28;20300;-79
2021/09/08 04:15:26;;;;;;;14.40;9.65;;;12.50;72.80;;;12.03;59.21;95506.97;4993560;28;20225;-79
2021/09/08 04:17:54;;;;;;;12.63;9.10;;;12.50;72.80;;;12.00;58.85;95501.06;5013282;28;20263;-78
2021/09/08 04:20:22;;;;;;;13.38;9.50;;;12.40;72.80;;;11.98;59.19;95505.69;4986200;28;20315;-79
2021/09/08 04:22:49;;;;;;;13.07;8.80;;;12.40;72.80;;;11.97;59.18;95508.50;5010339;28;20193;-79
2021/09/08 04:25:16;;;;;;;13.02;8.70;;;12.40;72.80;;;11.93;59.24;95502.78;5011678;28;20594;-79
2021/09/08 04:27:44;;;;;;;14.07;9.68;;;12.40;72.90;;;11.94;58.98;95506.25;5030284;28;20279;-79
2021/09/08 04:30:12;;;;;;;12.75;9.00;;;12.40;73.00;;;11.95;59.19;95508.66;4978423;28;20230;-80
2021/09/08 04:32:39;;;;;;;13.07;9.30;;;12.40;73.10;;;11.93;59.51;95515.91;5011225;28;20200;-79
2021/09/08 04:35:07;;;;;;;12.98;9.40;;;12.40;73.10;;;11.92;59.16;95514.28;5012786;28;20254;-79
2021/09/08 04:37:36;;;;;;;12.73;9.40;;;12.30;73.10;;;11.92;58.90;95516.13;5006817;28;20254;-79
2021/09/08 04:40:06;;;;;;;14.07;9.50;;;12.30;73.10;;;11.92;59.23;95511.66;5024217;28;20263;-80
2021/09/08 04:42:33;;;;;;;13.90;9.43;;;12.30;73.20;;;11.92;59.30;95510.84;5011135;28;20320;-79
2021/09/08 04:45:01;;;;;;;13.85;10.10;;;12.40;73.20;;;11.92;59.39;95511.66;5029136;28;20199;-79
2021/09/08 04:47:28;;;;;;;12.60;9.65;;;12.30;73.30;;;11.91;59.24;95504.75;5027505;28;20197;-79
2021/09/08 04:49:56;;;;;;;13.38;10.25;;;12.30;73.30;;;11.94;59.32;95512.28;5010956;28;20212;-79
2021/09/08 04:52:23;;;;;;;14.38;9.85;;;12.30;73.40;;;11.97;59.48;95501.47;5010899;28;20201;-80
2021/09/08 04:54:50;;;;;;;15.82;10.48;;;12.30;73.40;;;11.98;59.51;95504.88;5010539;28;20655;-79
2021/09/08 04:57:17;;;;;;;14.30;10.15;;;12.40;73.60;;;12.03;60.05;95509.59;5005611;28;20200;-79
2021/09/08 04:59:44;;;;;;;14.40;10.70;;;12.40;73.70;;;12.03;59.58;95509.59;5010748;28;20721;-79
2021/09/08 05:02:12;;;;;;;13.27;9.32;;;12.40;73.80;;;12.11;59.76;95517.38;5010931;28;20272;-80
2021/09/08 05:04:39;;;;;;;18.20;10.63;;;12.40;73.80;;;12.14;59.54;95511.72;5020670;28;20279;-80
2021/09/08 05:07:06;;;;;;;14.32;10.63;;;12.40;73.80;;;12.16;59.52;95510.53;5026210;28;20244;-79
2021/09/08 05:09:33;;;;;;;16.80;10.85;;;12.50;74.00;;;12.22;59.53;95514.25;4994670;28;20269;-80
2021/09/08 05:12:01;;;;;;;15.00;10.43;;;12.40;74.00;;;12.26;59.46;95515.47;5013746;28;20323;-80
2021/09/08 05:14:28;;;;;;;15.30;10.25;;;12.50;74.10;;;12.31;59.55;95518.34;5030435;28;20212;-80
2021/09/08 05:16:55;;;;;;;13.20;9.60;;;12.50;74.20;;;12.39;59.78;95517.44;4999294;28;20217;-80
2021/09/08 05:19:22;;;;;;;15.70;10.43;;;12.70;74.30;;;12.45;59.78;95521.13;5027870;28;20236;-79
2021/09/08 05:21:49;;;;;;;16.73;10.68;;;12.60;74.30;;;12.49;59.62;95520.56;5014034;28;20585;-79
2021/09/08 05:24:17;;;;;;;14.00;10.30;;;12.70;74.40;;;12.56;59.75;95518.00;5014277;28;20729;-79
2021/09/08 05:26:44;;;;;;;14.88;10.98;;;12.70;74.50;;;12.67;59.72;95529.00;5016610;28;20222;-79
2021/09/08 05:29:11;;;;;;;15.02;11.07;;;12.80;74.60;;;12.73;59.86;95523.81;5011647;28;20235;-79
2021/09/08 05:31:39;;;;;;;15.52;10.45;;;12.80;74.70;;;12.80;59.87;95526.50;4995720;28;20316;-79
2021/09/08 05:34:06;;;;;;;13.90;10.45;;;12.90;74.70;;;12.87;59.69;95527.34;5012253;28;20193;-79
2021/09/08 05:36:33;;;;;;;15.98;10.80;;;12.90;74.70;;;12.94;59.95;95527.44;4996320;28;20244;-79
2021/09/08 05:39:01;;;;;;;13.73;9.88;;;13.00;74.90;;;13.02;59.82;95529.88;5012652;28;20213;-79
2021/09/08 05:41:28;;;;;;;13.23;10.68;;;13.10;75.00;;;13.11;59.82;95533.22;5012665;28;20220;-79
2021/09/08 05:43:56;;;;;;;14.75;10.98;;;13.10;75.00;;;13.18;59.81;95525.34;4997212;28;20643;-79
2021/09/08 05:46:23;;;;;;;14.80;10.82;;;13.20;75.10;;;13.23;59.96;95520.31;5018451;28;20225;-79
2021/09/08 05:48:51;;;;;;;17.13;10.63;;;13.20;75.10;;;13.33;59.84;95523.44;5003352;28;20367;-79
2021/09/08 05:51:18;;;;;;;14.10;10.23;;;13.30;75.20;;;13.44;59.94;95522.09;4997437;28;20235;-79
2021/09/08 05:53:45;;;;;;;17.98;12.05;;;13.40;75.20;;;13.51;59.74;95515.03;5013383;28;20250;-78
2021/09/08 05:56:12;;;;;;;13.68;10.30;;;13.50;75.30;;;13.62;60.01;95524.19;5013390;28;20299;-79
2021/09/08 05:58:39;;;;;;;15.50;10.70;;;13.60;75.30;;;13.75;59.76;95526.09;5017514;28;20263;-78
2021/09/08 06:01:07;;;;;;;13.73;10.15;;;13.60;75.30;;;13.86;59.95;95519.44;4987147;28;20307;-78
2021/09/08 06:03:34;;;;;;;14.98;10.45;;;13.70;75.30;;;13.97;59.93;95523.34;5020980;28;20189;-76
2021/09/08 06:06:02;;;;;;;14.07;10.18;;;13.80;75.30;;;14.08;59.74;95515.66;5013507;28;20291;-77
2021/09/08 06:08:30;;;;;;;14.90;10.90;;;14.00;75.40;;;14.19;59.73;95516.91;5022437;28;20661;-78
2021/09/08 06:10:57;;;;;;;14.57;9.98;;;14.00;75.30;;;14.29;59.70;95513.88;4987640;28;20315;-78
2021/09/08 06:13:25;;;;;;;14.10;10.55;;;14.10;75.30;;;14.43;59.91;95517.38;5024153;28;20254;-77
2021/09/08 06:15:52;;;;;;;14.68;9.95;;;14.30;75.40;;;14.53;59.54;95507.22;5022437;28;20712;-78
2021/09/08 06:18:19;;;;;;;15.13;10.40;;;14.30;75.30;;;14.64;59.58;95505.00;4995502;28;20212;-78
2021/09/08 06:20:46;;;;;;;14.38;10.23;;;14.50;75.30;;;14.75;58.93;95499.13;5021566;28;20216;-77
2021/09/08 06:23:16;;;;;;;17.08;10.77;;;14.50;75.20;;;14.86;59.24;95503.78;5023183;28;20192;-78
2021/09/08 06:25:43;;;;;;;13.88;10.35;;;14.70;75.20;;;14.98;59.43;95503.19;5022097;28;20222;-77
2021/09/08 06:28:10;;;;;;;14.88;10.48;;;14.70;75.10;;;15.09;59.56;95499.09;5004615;28;20560;-78
2021/09/08 06:30:37;;;;;;;14.43;10.30;;;14.80;75.20;;;15.21;59.15;95506.22;5014535;28;20223;-78
2021/09/08 06:33:05;;;;;;;14.82;9.77;;;15.00;75.20;;;15.32;59.34;95496.03;5016177;28;20193;-78
2021/09/08 06:35:32;;;;;;;14.80;10.32;;;15.00;75.10;;;15.42;59.45;95499.03;5013891;28;20270;-79
2021/09/08 06:37:59;;;;;;;14.40;9.85;;;15.20;75.10;;;15.54;58.69;95501.88;5029607;28;20299;-78
2021/09/08 06:40:27;;;;;;;14.18;9.70;;;15.30;75.10;;;15.65;58.96;95495.13;5016083;28;20239;-78
2021/09/08 06:42:55;;;;;;;13.07;9.48;;;15.40;75.20;;;15.77;59.17;95501.38;5023336;28;20243;-78
2021/09/08 06:45:23;;;;;;;13.55;9.88;;;15.50;75.20;;;15.90;58.66;95500.53;5014136;28;20699;-79
2021/09/08 06:47:50;;;;;;;13.90;9.48;;;15.60;75.10;;;15.97;58.87;95493.38;5005302;28;20201;-78
2021/09/08 06:50:17;;;;;;;14.35;9.70;;;15.70;75.10;;;16.13;58.77;95494.72;4995700;28;20220;-79
2021/09/08 06:52:45;;;;;;;15.02;9.77;;;15.80;75.00;;;16.23;58.89;95488.16;4992788;28;20228;-78
2021/09/08 06:55:12;;;;;;;12.93;9.50;;;15.90;75.00;;;16.38;58.68;95495.78;5010374;28;20340;-78
2021/09/08 06:57:39;;;;;;;11.32;9.38;;;16.00;75.00;;;16.47;58.51;95492.66;5010373;28;20200;-78
2021/09/08 07:00:07;;;;;;;13.85;9.73;;;16.20;74.80;;;16.60;58.48;95489.13;5011009;28;20212;-78
2021/09/08 07:02:34;;;;;;;12.90;9.57;;;16.30;74.60;;;16.71;58.03;95487.63;5010290;28;20224;-78
2021/09/08 07:05:04;;;;;;;11.95;8.88;;;16.40;74.50;;;16.81;58.09;95495.88;5023048;28;20276;-78
2021/09/08 07:07:31;;;;;;;11.75;9.48;;;16.50;74.20;;;16.90;57.69;95480.50;5009593;28;20196;-78
2021/09/08 07:09:59;;;;;;;12.73;10.13;;;16.60;74.10;;;17.02;57.25;95491.25;5031270;28;20561;-79
2021/09/08 07:12:26;;;;;;;14.10;9.68;;;16.70;74.10;;;17.11;57.62;95487.31;5027990;28;20200;-78
2021/09/08 07:14:53;;;;;;;14.07;10.15;;;16.80;74.00;;;17.22;57.38;95498.19;5012197;28;20632;-79
2021/09/08 07:17:20;;;;;;;13.90;9.48;;;16.90;73.80;;;17.32;57.28;95489.75;5029265;28;20669;-78
2021/09/08 07:19:47;;;;;;;17.65;9.95;;;17.00;73.60;;;17.43;56.83;95491.66;5031133;28;20215;-79
2021/09/08 07:22:15;;;;;;;13.23;9.80;;;17.00;73.50;;;17.53;56.50;95491.97;5015561;28;20279;-80
2021/09/08 07:24:42;;;;;;;12.07;9.20;;;17.20;73.40;;;17.62;56.59;95481.06;5028314;28;20214;-79
2021/09/08 07:27:10;;;;;;;15.38;9.05;;;17.20;73.20;;;17.71;56.44;95488.50;5011886;28;20237;-79
2021/09/08 07:29:37;;;;;;;15.15;9.85;;;17.40;73.20;;;17.79;56.32;95482.06;5013126;28;20211;-79
2021/09/08 07:32:07;;;;;;;16.05;10.10;;;17.40;73.00;;;17.89;56.45;95484.19;5017688;28;20224;-77
2021/09/08 07:34:35;;;;;;;13.98;9.40;;;17.50;73.00;;;17.98;56.15;95490.03;4999260;28;20192;-79
2021/09/08 07:37:02;;;;;;;13.45;9.27;;;17.60;73.00;;;18.06;56.44;95482.56;5030919;28;20801;-79
2021/09/08 07:39:30;;;;;;;14.13;9.25;;;17.70;73.00;;;18.18;56.36;95487.94;5044421;28;20212;-79
2021/09/08 07:41:58;;;;;;;13.82;9.68;;;17.80;72.90;;;18.28;56.30;95492.69;5025943;28;20234;-79
2021/09/08 07:44:26;;;;;;;13.70;9.70;;;17.80;72.80;;;18.37;56.16;95488.69;5015141;28;20707;-79
2021/09/08 07:46:53;;;;;;;13.65;9.85;;;18.00;72.70;;;18.46;55.22;95485.72;5014176;28;20251;-78
2021/09/08 07:49:21;;;;;;;16.25;10.13;;;18.10;72.50;;;18.54;55.52;95486.19;5022933;28;20561;-79
2021/09/08 07:51:48;;;;;;;14.25;9.55;;;18.10;72.30;;;18.59;55.46;95488.19;5011544;28;20217;-79
2021/09/08 07:54:15;;;;;;;12.07;8.40;;;18.20;72.40;;;18.72;55.52;95495.13;5011479;28;20205;-79
2021/09/08 07:56:43;;;;;;;12.30;9.20;;;18.30;72.20;;;18.82;55.13;95498.03;4995242;28;20252;-79
2021/09/08 07:59:10;;;;;;;13.65;9.32;;;18.40;72.10;;;18.86;55.27;95487.75;5013022;28;20221;-78
2021/09/08 08:01:37;;;;;;;13.13;9.98;;;18.50;71.90;;;18.98;55.11;95499.22;5012310;28;20312;-77
2021/09/08 08:04:05;;;;;;;16.25;9.48;;;18.50;71.90;;;19.07;55.16;95498.91;4995456;28;20201;-80
2021/09/08 08:06:33;;;;;;;12.27;8.52;;;18.60;71.90;;;19.16;54.32;95492.19;5011381;28;20601;-79
2021/09/08 08:08:59;;;;;;;12.70;9.20;;;18.80;71.90;;;19.24;54.91;95491.84;5030464;28;20196;-79
2021/09/08 08:11:27;;;;;;;13.25;9.75;;;18.80;71.80;;;19.33;54.21;95486.97;5031082;28;20223;-79
2021/09/08 08:13:54;;;;;;;13.43;9.55;;;18.90;71.50;;;19.42;54.10;95485.56;5012560;28;20199;-80
2021/09/08 08:16:32;;;;;;;12.15;8.73;;;18.90;71.40;;;19.55;54.25;95489.81;5032196;28;20234;-79
2021/09/08 08:19:00;;;;;;;10.70;8.50;;;19.10;71.50;;;19.64;53.85;95482.28;5008847;28;20205;-78
2021/09/08 08:21:27;;;;;;;12.40;8.98;;;19.20;71.30;;;19.72;53.89;95487.25;5011681;28;20302;-79
2021/09/08 08:23:54;;;;;;;10.82;8.48;;;19.30;71.20;;;19.81;53.78;95483.19;5030052;28;20223;-77
2021/09/08 08:26:22;;;;;;;11.32;8.65;;;19.30;70.90;;;19.89;53.51;95490.00;5029693;28;20204;-77
2021/09/08 08:28:52;;;;;;;13.85;8.70;;;19.40;70.90;;;19.97;53.40;95472.88;5011400;28;20243;-79
2021/09/08 08:31:20;;;;;;;11.65;9.10;;;19.50;70.60;;;20.07;52.47;95477.56;5025188;28;20218;-78
2021/09/08 08:33:48;;;;;;;12.43;9.35;;;19.60;70.10;;;20.11;51.96;95476.03;4997533;28;20189;-79
2021/09/08 08:36:17;;;;;;;13.07;9.10;;;19.70;69.70;;;20.19;51.82;95474.84;5010477;28;20304;-79
2021/09/08 08:38:44;;;;;;;15.52;9.07;;;19.80;69.60;;;20.27;51.30;95477.13;5024740;28;20234;-79
2021/09/08 08:41:13;;;;;;;24.65;9.57;;;19.80;69.30;;;20.33;51.17;95468.19;5028822;28;20558;-80
2021/09/08 08:43:40;;;;;;;11.00;8.77;;;19.90;69.00;;;20.40;50.94;95473.38;5029867;28;20188;-79
2021/09/08 08:46:08;;;;;;;10.95;8.68;;;20.00;68.90;;;20.46;50.37;95472.41;5014145;28;20252;-80
2021/09/08 08:48:36;;;;;;;13.77;8.50;;;20.00;68.50;;;20.54;50.68;95469.31;5014108;28;20192;-77
2021/09/08 08:51:04;;;;;;;13.20;9.07;;;20.10;68.70;;;20.61;51.01;95469.97;5017766;28;20224;-79
2021/09/08 08:53:31;;;;;;;12.15;8.30;;;20.20;68.80;;;20.71;51.16;95468.53;5017890;28;20654;-79
2021/09/08 08:55:59;;;;;;;10.57;8.20;;;20.20;68.80;;;20.78;51.12;95467.34;5014600;28;20772;-77
2021/09/08 08:58:26;;;;;;;11.75;8.45;;;20.40;68.60;;;20.87;50.38;95469.63;5019213;28;20295;-80
2021/09/08 09:01:21;;;;;;;9.40;7.95;;;20.40;68.30;;;20.95;50.50;95469.22;5031120;28;20327;-79
2021/09/08 09:04:07;;;;;;;10.20;8.10;;;20.50;68.60;;;21.04;50.78;95462.41;5030787;28;20221;-79
2021/09/08 09:06:39;;;;;;;9.82;7.85;;;20.60;68.40;;;21.13;50.14;95462.00;5031808;28;20278;-77
2021/09/08 09:09:15;;;;;;;10.25;8.20;;;20.60;68.20;;;21.21;49.85;95458.91;5033223;28;20262;-76
2021/09/08 09:11:48;;;;;;;13.27;8.15;;;20.70;67.90;;;21.31;50.26;95448.38;5024595;28;20208;-80
2021/09/08 09:14:18;;;;;;;12.98;8.43;;;20.80;67.90;;;21.39;49.71;95455.94;5016717;28;20295;-77
2021/09/08 09:16:46;;;;;;;18.58;8.95;;;20.80;67.70;;;21.47;49.62;95449.41;5017333;28;20215;-79
2021/09/08 09:19:13;;;;;;;13.93;8.30;;;20.90;67.70;;;21.55;49.23;95448.94;5001519;28;20204;-79
2021/09/08 09:21:42;;;;;;;10.55;7.95;;;21.00;67.50;;;21.65;49.32;95452.84;5030039;28;20201;-77
2021/09/08 09:24:10;;;;;;;10.57;7.95;;;21.10;67.60;;;21.73;49.20;95447.06;5014382;28;20201;-77
2021/09/08 09:26:41;;;;;;;10.57;7.38;;;21.20;67.30;;;21.80;49.27;95455.69;5013856;28;20790;-79
2021/09/08 09:29:18;;;;;;;10.02;8.23;;;21.20;67.30;;;21.86;49.10;95445.88;5030305;28;20274;-77
2021/09/08 09:31:57;;;;;;;10.02;7.85;;;21.30;67.10;;;21.93;48.75;95437.69;5013943;28;20220;-80
2021/09/08 09:34:29;;;;;;;9.35;7.28;;;21.40;66.90;;;22.02;49.21;95438.81;5014085;28;20193;-80
2021/09/08 09:36:59;;;;;;;11.30;7.55;;;21.50;67.40;;;22.12;49.11;95430.09;5009814;28;20220;-80
2021/09/08 09:39:32;;;;;;;10.07;7.55;;;21.60;67.50;;;22.23;48.56;95424.63;5033425;28;20198;-77
2021/09/08 09:42:05;;;;;;;11.00;7.82;;;21.60;67.10;;;22.34;48.59;95428.19;5033829;28;20886;-77
2021/09/08 09:44:33;;;;;;;9.68;7.25;;;21.70;66.90;;;22.43;48.38;95425.09;5033774;28;20213;-76
2021/09/08 09:47:01;;;;;;;10.82;8.50;;;21.80;66.90;;;22.51;47.50;95428.09;5026544;28;20631;-75
2021/09/08 09:49:34;;;;;;;11.05;8.18;;;21.90;66.30;;;22.57;47.52;95426.28;5014409;28;20291;-78
2021/09/08 09:52:06;;;;;;;11.70;7.95;;;22.00;66.00;;;22.64;46.85;95423.38;5028838;28;20338;-77
2021/09/08 09:54:36;;;;;;;8.43;7.18;;;22.10;65.50;;;22.68;47.45;95416.47;4997602;28;20220;-78
2021/09/08 09:57:04;;;;;;;12.27;8.18;;;22.10;66.10;;;22.73;47.58;95413.84;5013559;28;20245;-77
2021/09/08 09:59:32;;;;;;;9.38;7.72;;;22.20;66.10;;;22.83;47.30;95407.75;4997262;28;20569;-77
2021/09/08 10:02:01;;;;;;;11.48;7.63;;;22.30;65.60;;;22.92;46.65;95408.06;5040588;28;20311;-77
2021/09/08 10:04:29;;;;;;;9.57;7.55;;;22.30;65.30;;;22.97;46.80;95411.59;5028203;28;20213;-79
2021/09/08 10:06:57;;;;;;;10.98;7.32;;;22.40;65.40;;;23.07;46.75;95404.69;5032139;28;20218;-80
2021/09/08 10:09:26;;;;;;;11.25;7.03;;;22.50;65.50;;;23.12;46.13;95408.19;5028398;28;20255;-79
2021/09/08 10:11:56;;;;;;;12.25;7.60;;;22.50;65.40;;;23.18;46.68;95411.75;4997069;28;20625;-79
2021/09/08 10:14:27;;;;;;;10.30;8.25;;;22.60;65.50;;;23.22;45.74;95412.84;5013338;28;20234;-79
2021/09/08 10:17:00;;;;;;;10.55;8.32;;;22.70;65.00;;;23.25;45.66;95404.25;5014190;28;20219;-78